Main page
METAR-TAF:

METAR-TAF

Airports :

Ponta Porã International Airport

Ponta Porã, Mato Grosso do Sul, Brazil

latitude: 22-33S, longitude: 055-42W, elevation: 657 m

Current weather observation

The report was made 1 hour and 1 minutes ago, at 15:00 UTC
Wind 8 kt from the South
Temperature 29°C
Humidity 66%
Pressure 1016 hPa
Visibility 10 km or more
no clouds below 1500 m and no cumulonimbus

METAR: SBPP 211500Z 18008KT CAVOK 29/22 Q1016

Time: 12:01 (16:01 UTC)

Forecast

The report was made 6 hours and 31 minutes ago, at 09:30 UTC
Forecast valid from 21 at 12 UTC to 22 at 12 UTC
Wind 5 kt from the West/Southwest
Visibility 10 km or more
Few clouds at a height of 1000 ft
Becoming
from 21 at 13 UTC to 21 at 15 UTC
Broken clouds at a height of 2000 ft
Few clouds at a height of 3000 ft, Cumulonimbus.
thunderstorm
Becoming
from 21 at 20 UTC to 21 at 22 UTC
Broken clouds at a height of 1500 ft

TAF: SBPP 210930Z 2112/2212 24005KT 9999 FEW010 TX28/2116Z TN22/2208Z BECMG 2113/2115 TS BKN020 FEW030CB BECMG 2120/2122 BKN015 RMK PDZ

Weather observations and forecasts of more than 4000 airports (METAR and TAF reports).

The available stations are represented by yellow and red dots on the map.

Hover mouse over dot to see the name of the station.

Then click to see weather observations and forecasts.

To change the map : click on the green buttons with a black cross to zoom in, on the green button with a dash to zoom out, or on the green arrows for adjacent maps.


METAR-TAF: